Anvik, Alaska
Current Conditions -  °F | °C
As of 11:56 PM on Tuesday 21 Oct 2014 (Local Time) from PANV Reporting Station
Clear Clear  
Wind Chill: 23°   Ceiling: Unl
Heat Index: 30°   Visibility: 10mi
Dew Point: 21°   Wind: 7mph
Humidity: 69%   Direction: 10°N
Pressure: 29.55"   Gusts: 17mph
Location:  62.66°N, 160.21°W
Report Text: PANV 220756Z AUTO 01006G15KT 320V040 10SM CLR M01/M06 A2955 RMK AO1
Loading
Personal Weather Stations






























Interactive Weather Map
Tropical Storm Tracking
New forecast layout! Learn more

10-Day Weather Forecast

Advertisements
Track Severe Weather on mobile